sensor_id;sensor_type;location;lat;lon;timestamp;P1;durP1;ratioP1;P2;durP2;ratioP2
39600;SDS011;25297;44.758;11.310;2024-02-15T00:02:02;46.47;;;36.38;;
39600;SDS011;25297;44.758;11.310;2024-02-15T00:04:28;54.05;;;39.97;;
39600;SDS011;25297;44.758;11.310;2024-02-15T00:06:53;60.33;;;43.78;;
39600;SDS011;25297;44.758;11.310;2024-02-15T00:09:19;51.60;;;38.38;;
39600;SDS011;25297;44.758;11.310;2024-02-15T00:11:45;67.57;;;47.42;;
39600;SDS011;25297;44.758;11.310;2024-02-15T00:14:10;61.47;;;42.72;;
39600;SDS011;25297;44.758;11.310;2024-02-15T00:16:37;55.05;;;40.58;;
39600;SDS011;25297;44.758;11.310;2024-02-15T00:19:02;57.08;;;40.22;;
39600;SDS011;25297;44.758;11.310;2024-02-15T00:21:28;50.85;;;33.90;;
39600;SDS011;25297;44.758;11.310;2024-02-15T00:23:54;47.28;;;34.70;;
39600;SDS011;25297;44.758;11.310;2024-02-15T00:26:21;50.83;;;38.00;;
39600;SDS011;25297;44.758;11.310;2024-02-15T00:28:47;53.28;;;37.58;;
39600;SDS011;25297;44.758;11.310;2024-02-15T00:31:14;54.30;;;37.78;;
39600;SDS011;25297;44.758;11.310;2024-02-15T00:33:39;52.05;;;36.10;;
39600;SDS011;25297;44.758;11.310;2024-02-15T00:36:05;48.83;;;31.95;;
39600;SDS011;25297;44.758;11.310;2024-02-15T00:38:31;49.30;;;34.20;;
39600;SDS011;25297;44.758;11.310;2024-02-15T00:40:57;54.88;;;34.15;;
39600;SDS011;25297;44.758;11.310;2024-02-15T00:43:28;44.42;;;30.48;;
39600;SDS011;25297;44.758;11.310;2024-02-15T00:45:54;47.92;;;32.08;;
39600;SDS011;25297;44.758;11.310;2024-02-15T00:48:20;50.80;;;34.92;;
39600;SDS011;25297;44.758;11.310;2024-02-15T00:50:45;47.28;;;33.63;;
39600;SDS011;25297;44.758;11.310;2024-02-15T00:53:11;50.90;;;32.58;;
39600;SDS011;25297;44.758;11.310;2024-02-15T00:55:36;48.67;;;32.70;;
39600;SDS011;25297;44.758;11.310;2024-02-15T00:58:02;42.88;;;28.17;;
39600;SDS011;25297;44.758;11.310;2024-02-15T01:00:29;40.75;;;29.15;;
39600;SDS011;25297;44.758;11.310;2024-02-15T01:02:57;43.53;;;30.48;;
39600;SDS011;25297;44.758;11.310;2024-02-15T01:05:23;37.85;;;27.17;;
39600;SDS011;25297;44.758;11.310;2024-02-15T01:07:49;41.20;;;28.38;;
39600;SDS011;25297;44.758;11.310;2024-02-15T01:10:15;48.75;;;31.02;;
39600;SDS011;25297;44.758;11.310;2024-02-15T01:12:41;45.38;;;32.22;;
39600;SDS011;25297;44.758;11.310;2024-02-15T01:15:06;38.40;;;27.63;;
39600;SDS011;25297;44.758;11.310;2024-02-15T01:17:32;43.00;;;28.50;;
39600;SDS011;25297;44.758;11.310;2024-02-15T01:19:58;38.35;;;25.55;;
39600;SDS011;25297;44.758;11.310;2024-02-15T01:22:24;41.00;;;28.48;;
39600;SDS011;25297;44.758;11.310;2024-02-15T01:24:52;38.40;;;25.90;;
39600;SDS011;25297;44.758;11.310;2024-02-15T01:27:18;34.45;;;25.25;;
39600;SDS011;25297;44.758;11.310;2024-02-15T01:29:43;39.25;;;26.92;;
39600;SDS011;25297;44.758;11.310;2024-02-15T01:32:09;40.65;;;28.52;;
39600;SDS011;25297;44.758;11.310;2024-02-15T01:34:35;37.83;;;26.90;;
39600;SDS011;25297;44.758;11.310;2024-02-15T01:37:00;40.13;;;27.17;;
39600;SDS011;25297;44.758;11.310;2024-02-15T01:39:26;37.90;;;24.92;;
39600;SDS011;25297;44.758;11.310;2024-02-15T01:41:52;36.85;;;25.77;;
39600;SDS011;25297;44.758;11.310;2024-02-15T01:44:21;34.90;;;23.77;;
39600;SDS011;25297;44.758;11.310;2024-02-15T01:46:49;37.72;;;25.23;;
39600;SDS011;25297;44.758;11.310;2024-02-15T01:49:17;40.47;;;28.27;;
39600;SDS011;25297;44.758;11.310;2024-02-15T01:51:43;38.55;;;25.45;;
39600;SDS011;25297;44.758;11.310;2024-02-15T01:54:12;35.05;;;24.65;;
39600;SDS011;25297;44.758;11.310;2024-02-15T01:56:42;36.53;;;24.30;;
39600;SDS011;25297;44.758;11.310;2024-02-15T01:59:08;37.17;;;25.20;;
39600;SDS011;25297;44.758;11.310;2024-02-15T02:01:35;36.83;;;25.13;;
39600;SDS011;25297;44.758;11.310;2024-02-15T02:04:00;32.40;;;24.50;;
39600;SDS011;25297;44.758;11.310;2024-02-15T02:06:28;35.60;;;24.00;;
39600;SDS011;25297;44.758;11.310;2024-02-15T02:08:54;31.10;;;21.55;;
39600;SDS011;25297;44.758;11.310;2024-02-15T02:11:21;36.45;;;24.25;;
39600;SDS011;25297;44.758;11.310;2024-02-15T02:13:47;38.53;;;23.75;;
39600;SDS011;25297;44.758;11.310;2024-02-15T02:16:26;41.38;;;26.30;;
39600;SDS011;25297;44.758;11.310;2024-02-15T02:18:52;34.72;;;25.35;;
39600;SDS011;25297;44.758;11.310;2024-02-15T02:21:19;39.28;;;24.20;;
39600;SDS011;25297;44.758;11.310;2024-02-15T02:23:46;44.92;;;29.73;;
39600;SDS011;25297;44.758;11.310;2024-02-15T02:26:16;36.90;;;25.00;;
39600;SDS011;25297;44.758;11.310;2024-02-15T02:28:42;36.40;;;25.63;;
39600;SDS011;25297;44.758;11.310;2024-02-15T02:31:08;32.95;;;23.70;;
39600;SDS011;25297;44.758;11.310;2024-02-15T02:33:36;27.20;;;20.80;;
39600;SDS011;25297;44.758;11.310;2024-02-15T02:36:02;34.92;;;24.58;;
39600;SDS011;25297;44.758;11.310;2024-02-15T02:38:28;38.05;;;28.35;;
39600;SDS011;25297;44.758;11.310;2024-02-15T02:40:53;42.45;;;29.77;;
39600;SDS011;25297;44.758;11.310;2024-02-15T02:43:19;41.50;;;27.60;;
39600;SDS011;25297;44.758;11.310;2024-02-15T02:45:45;40.08;;;26.23;;
39600;SDS011;25297;44.758;11.310;2024-02-15T02:48:10;42.42;;;29.15;;
39600;SDS011;25297;44.758;11.310;2024-02-15T02:50:36;42.97;;;27.27;;
39600;SDS011;25297;44.758;11.310;2024-02-15T02:53:02;33.65;;;23.77;;
39600;SDS011;25297;44.758;11.310;2024-02-15T02:55:28;34.38;;;24.70;;
39600;SDS011;25297;44.758;11.310;2024-02-15T02:57:54;38.15;;;24.73;;
39600;SDS011;25297;44.758;11.310;2024-02-15T03:00:20;31.15;;;23.45;;
39600;SDS011;25297;44.758;11.310;2024-02-15T03:02:46;30.75;;;22.98;;
39600;SDS011;25297;44.758;11.310;2024-02-15T03:05:12;37.92;;;24.98;;
39600;SDS011;25297;44.758;11.310;2024-02-15T03:07:39;38.38;;;25.83;;
39600;SDS011;25297;44.758;11.310;2024-02-15T03:10:05;33.08;;;22.25;;
39600;SDS011;25297;44.758;11.310;2024-02-15T03:12:39;37.05;;;24.65;;
39600;SDS011;25297;44.758;11.310;2024-02-15T03:15:07;34.13;;;24.00;;
39600;SDS011;25297;44.758;11.310;2024-02-15T03:17:36;31.20;;;22.52;;
39600;SDS011;25297;44.758;11.310;2024-02-15T03:20:06;41.75;;;24.48;;
39600;SDS011;25297;44.758;11.310;2024-02-15T03:22:56;36.67;;;21.92;;
39600;SDS011;25297;44.758;11.310;2024-02-15T03:25:22;31.48;;;20.75;;
39600;SDS011;25297;44.758;11.310;2024-02-15T03:27:49;32.58;;;23.60;;
39600;SDS011;25297;44.758;11.310;2024-02-15T03:30:19;33.22;;;22.30;;
39600;SDS011;25297;44.758;11.310;2024-02-15T03:32:46;31.58;;;21.95;;
39600;SDS011;25297;44.758;11.310;2024-02-15T03:35:13;30.13;;;21.95;;
39600;SDS011;25297;44.758;11.310;2024-02-15T03:37:42;32.35;;;22.83;;
39600;SDS011;25297;44.758;11.310;2024-02-15T03:40:08;30.67;;;21.42;;
39600;SDS011;25297;44.758;11.310;2024-02-15T03:42:35;29.38;;;19.42;;
39600;SDS011;25297;44.758;11.310;2024-02-15T03:45:02;27.30;;;19.65;;
39600;SDS011;25297;44.758;11.310;2024-02-15T03:47:34;31.23;;;19.33;;
39600;SDS011;25297;44.758;11.310;2024-02-15T03:50:04;32.13;;;19.75;;
39600;SDS011;25297;44.758;11.310;2024-02-15T03:52:31;32.65;;;20.27;;
39600;SDS011;25297;44.758;11.310;2024-02-15T03:54:57;34.47;;;23.13;;
39600;SDS011;25297;44.758;11.310;2024-02-15T03:57:23;30.80;;;20.50;;
39600;SDS011;25297;44.758;11.310;2024-02-15T03:59:49;33.55;;;21.83;;
39600;SDS011;25297;44.758;11.310;2024-02-15T04:02:19;32.20;;;20.15;;
39600;SDS011;25297;44.758;11.310;2024-02-15T04:04:54;31.13;;;20.10;;
39600;SDS011;25297;44.758;11.310;2024-02-15T04:07:20;26.90;;;18.70;;
39600;SDS011;25297;44.758;11.310;2024-02-15T04:09:47;28.38;;;19.02;;
39600;SDS011;25297;44.758;11.310;2024-02-15T04:12:13;31.55;;;20.67;;
39600;SDS011;25297;44.758;11.310;2024-02-15T04:14:39;28.33;;;17.40;;
39600;SDS011;25297;44.758;11.310;2024-02-15T04:17:05;28.50;;;19.48;;
39600;SDS011;25297;44.758;11.310;2024-02-15T04:19:31;27.48;;;18.75;;
39600;SDS011;25297;44.758;11.310;2024-02-15T04:21:58;26.63;;;17.98;;
39600;SDS011;25297;44.758;11.310;2024-02-15T04:24:25;26.73;;;18.60;;
39600;SDS011;25297;44.758;11.310;2024-02-15T04:26:54;25.25;;;16.85;;
39600;SDS011;25297;44.758;11.310;2024-02-15T04:29:20;24.77;;;15.38;;
39600;SDS011;25297;44.758;11.310;2024-02-15T04:31:46;28.90;;;17.55;;
39600;SDS011;25297;44.758;11.310;2024-02-15T04:34:15;22.85;;;15.23;;
39600;SDS011;25297;44.758;11.310;2024-02-15T04:36:43;23.08;;;15.82;;
39600;SDS011;25297;44.758;11.310;2024-02-15T04:39:14;18.10;;;14.25;;
39600;SDS011;25297;44.758;11.310;2024-02-15T04:41:48;21.08;;;15.35;;
39600;SDS011;25297;44.758;11.310;2024-02-15T04:44:15;21.75;;;14.55;;
39600;SDS011;25297;44.758;11.310;2024-02-15T04:46:41;20.80;;;14.48;;
39600;SDS011;25297;44.758;11.310;2024-02-15T04:49:10;22.85;;;15.18;;
39600;SDS011;25297;44.758;11.310;2024-02-15T04:51:35;24.90;;;15.70;;
39600;SDS011;25297;44.758;11.310;2024-02-15T04:54:01;22.80;;;14.57;;
39600;SDS011;25297;44.758;11.310;2024-02-15T04:56:27;21.27;;;14.52;;
39600;SDS011;25297;44.758;11.310;2024-02-15T04:58:53;24.38;;;15.63;;
39600;SDS011;25297;44.758;11.310;2024-02-15T05:01:19;28.70;;;16.38;;
39600;SDS011;25297;44.758;11.310;2024-02-15T05:03:45;24.65;;;16.67;;
39600;SDS011;25297;44.758;11.310;2024-02-15T05:06:11;22.98;;;16.42;;
39600;SDS011;25297;44.758;11.310;2024-02-15T05:08:40;22.23;;;14.80;;
39600;SDS011;25297;44.758;11.310;2024-02-15T05:11:10;28.70;;;17.63;;
39600;SDS011;25297;44.758;11.310;2024-02-15T05:13:44;22.75;;;15.23;;
39600;SDS011;25297;44.758;11.310;2024-02-15T05:16:10;23.60;;;16.27;;
39600;SDS011;25297;44.758;11.310;2024-02-15T05:18:37;23.90;;;15.98;;
39600;SDS011;25297;44.758;11.310;2024-02-15T05:21:05;23.50;;;16.13;;
39600;SDS011;25297;44.758;11.310;2024-02-15T05:23:34;22.48;;;16.27;;
39600;SDS011;25297;44.758;11.310;2024-02-15T05:26:01;28.05;;;17.30;;
39600;SDS011;25297;44.758;11.310;2024-02-15T05:28:28;27.58;;;16.00;;
39600;SDS011;25297;44.758;11.310;2024-02-15T05:33:46;28.63;;;18.23;;
39600;SDS011;25297;44.758;11.310;2024-02-15T05:36:19;24.48;;;15.68;;
39600;SDS011;25297;44.758;11.310;2024-02-15T05:38:54;26.83;;;17.45;;
39600;SDS011;25297;44.758;11.310;2024-02-15T05:41:22;30.42;;;20.38;;
39600;SDS011;25297;44.758;11.310;2024-02-15T05:43:48;23.38;;;16.10;;
39600;SDS011;25297;44.758;11.310;2024-02-15T05:46:14;29.73;;;18.80;;
39600;SDS011;25297;44.758;11.310;2024-02-15T05:48:39;26.13;;;17.45;;
39600;SDS011;25297;44.758;11.310;2024-02-15T05:51:07;25.55;;;16.00;;
39600;SDS011;25297;44.758;11.310;2024-02-15T05:53:33;26.27;;;16.50;;
39600;SDS011;25297;44.758;11.310;2024-02-15T05:56:01;25.55;;;16.40;;
39600;SDS011;25297;44.758;11.310;2024-02-15T05:58:29;23.02;;;16.38;;
39600;SDS011;25297;44.758;11.310;2024-02-15T06:00:55;23.17;;;16.55;;
39600;SDS011;25297;44.758;11.310;2024-02-15T06:03:26;26.40;;;16.43;;
39600;SDS011;25297;44.758;11.310;2024-02-15T06:05:54;29.13;;;18.25;;
39600;SDS011;25297;44.758;11.310;2024-02-15T06:08:23;28.75;;;17.88;;
39600;SDS011;25297;44.758;11.310;2024-02-15T06:10:49;31.38;;;19.40;;
39600;SDS011;25297;44.758;11.310;2024-02-15T06:13:15;31.35;;;19.60;;
39600;SDS011;25297;44.758;11.310;2024-02-15T06:15:41;30.63;;;19.35;;
39600;SDS011;25297;44.758;11.310;2024-02-15T06:18:06;29.52;;;17.52;;
39600;SDS011;25297;44.758;11.310;2024-02-15T06:20:35;28.65;;;17.80;;
39600;SDS011;25297;44.758;11.310;2024-02-15T06:23:01;24.48;;;15.82;;
39600;SDS011;25297;44.758;11.310;2024-02-15T06:25:31;22.65;;;15.27;;
39600;SDS011;25297;44.758;11.310;2024-02-15T06:28:00;23.08;;;15.50;;
39600;SDS011;25297;44.758;11.310;2024-02-15T06:30:31;28.25;;;14.35;;
39600;SDS011;25297;44.758;11.310;2024-02-15T06:33:15;23.95;;;14.27;;
39600;SDS011;25297;44.758;11.310;2024-02-15T06:36:03;28.63;;;17.85;;
39600;SDS011;25297;44.758;11.310;2024-02-15T06:38:48;30.40;;;18.75;;
39600;SDS011;25297;44.758;11.310;2024-02-15T06:41:32;25.98;;;17.27;;
39600;SDS011;25297;44.758;11.310;2024-02-15T06:43:58;23.63;;;16.50;;
39600;SDS011;25297;44.758;11.310;2024-02-15T06:46:24;24.15;;;15.05;;
39600;SDS011;25297;44.758;11.310;2024-02-15T06:48:49;23.70;;;15.25;;
39600;SDS011;25297;44.758;11.310;2024-02-15T06:51:15;23.33;;;14.68;;
39600;SDS011;25297;44.758;11.310;2024-02-15T06:53:41;29.80;;;18.83;;
39600;SDS011;25297;44.758;11.310;2024-02-15T06:56:09;26.75;;;15.93;;
39600;SDS011;25297;44.758;11.310;2024-02-15T06:58:36;26.55;;;16.63;;
39600;SDS011;25297;44.758;11.310;2024-02-15T07:01:02;24.15;;;15.02;;
39600;SDS011;25297;44.758;11.310;2024-02-15T07:03:30;24.73;;;16.30;;
39600;SDS011;25297;44.758;11.310;2024-02-15T07:05:57;24.92;;;15.82;;
39600;SDS011;25297;44.758;11.310;2024-02-15T07:08:23;27.65;;;16.42;;
39600;SDS011;25297;44.758;11.310;2024-02-15T07:10:51;25.70;;;17.17;;
39600;SDS011;25297;44.758;11.310;2024-02-15T07:13:17;26.90;;;16.38;;
39600;SDS011;25297;44.758;11.310;2024-02-15T07:15:43;23.08;;;15.95;;
39600;SDS011;25297;44.758;11.310;2024-02-15T07:18:10;23.08;;;15.70;;
39600;SDS011;25297;44.758;11.310;2024-02-15T07:20:41;26.92;;;16.02;;
39600;SDS011;25297;44.758;11.310;2024-02-15T07:23:06;26.80;;;16.35;;
39600;SDS011;25297;44.758;11.310;2024-02-15T07:25:32;26.40;;;17.08;;
39600;SDS011;25297;44.758;11.310;2024-02-15T07:27:57;22.33;;;14.95;;
39600;SDS011;25297;44.758;11.310;2024-02-15T07:30:23;26.70;;;16.50;;
39600;SDS011;25297;44.758;11.310;2024-02-15T07:32:49;24.33;;;16.02;;
39600;SDS011;25297;44.758;11.310;2024-02-15T07:35:16;28.30;;;17.00;;
39600;SDS011;25297;44.758;11.310;2024-02-15T07:37:52;25.30;;;16.02;;
39600;SDS011;25297;44.758;11.310;2024-02-15T07:40:23;27.97;;;17.47;;
39600;SDS011;25297;44.758;11.310;2024-02-15T07:42:53;33.35;;;20.60;;
39600;SDS011;25297;44.758;11.310;2024-02-15T07:45:19;37.33;;;22.25;;
39600;SDS011;25297;44.758;11.310;2024-02-15T07:47:45;27.73;;;19.58;;
39600;SDS011;25297;44.758;11.310;2024-02-15T07:50:11;29.40;;;20.50;;
39600;SDS011;25297;44.758;11.310;2024-02-15T07:52:48;31.20;;;21.75;;
39600;SDS011;25297;44.758;11.310;2024-02-15T07:55:14;26.90;;;19.27;;
39600;SDS011;25297;44.758;11.310;2024-02-15T07:57:40;30.85;;;19.88;;
39600;SDS011;25297;44.758;11.310;2024-02-15T08:00:06;34.20;;;21.70;;
39600;SDS011;25297;44.758;11.310;2024-02-15T08:02:39;31.33;;;19.45;;
39600;SDS011;25297;44.758;11.310;2024-02-15T08:05:07;33.63;;;22.42;;
39600;SDS011;25297;44.758;11.310;2024-02-15T08:07:45;30.77;;;20.15;;
39600;SDS011;25297;44.758;11.310;2024-02-15T08:10:12;31.05;;;20.55;;
39600;SDS011;25297;44.758;11.310;2024-02-15T08:12:47;36.45;;;22.30;;
39600;SDS011;25297;44.758;11.310;2024-02-15T08:15:17;31.05;;;23.55;;
39600;SDS011;25297;44.758;11.310;2024-02-15T08:17:43;37.65;;;24.48;;
39600;SDS011;25297;44.758;11.310;2024-02-15T08:20:13;38.45;;;24.92;;
39600;SDS011;25297;44.758;11.310;2024-02-15T08:22:40;33.95;;;24.17;;
39600;SDS011;25297;44.758;11.310;2024-02-15T08:25:07;42.13;;;27.45;;
39600;SDS011;25297;44.758;11.310;2024-02-15T08:27:47;40.75;;;25.90;;
39600;SDS011;25297;44.758;11.310;2024-02-15T08:30:15;40.92;;;27.63;;
39600;SDS011;25297;44.758;11.310;2024-02-15T08:32:41;37.28;;;26.05;;
39600;SDS011;25297;44.758;11.310;2024-02-15T08:35:12;37.40;;;25.35;;
39600;SDS011;25297;44.758;11.310;2024-02-15T08:37:38;39.15;;;27.75;;
39600;SDS011;25297;44.758;11.310;2024-02-15T08:40:04;41.75;;;29.98;;
39600;SDS011;25297;44.758;11.310;2024-02-15T08:42:43;48.03;;;33.53;;
39600;SDS011;25297;44.758;11.310;2024-02-15T08:45:09;47.45;;;33.15;;
39600;SDS011;25297;44.758;11.310;2024-02-15T08:47:39;45.47;;;33.80;;
39600;SDS011;25297;44.758;11.310;2024-02-15T08:50:06;42.28;;;31.33;;
39600;SDS011;25297;44.758;11.310;2024-02-15T08:52:34;43.72;;;32.25;;
39600;SDS011;25297;44.758;11.310;2024-02-15T08:55:03;44.10;;;33.17;;
39600;SDS011;25297;44.758;11.310;2024-02-15T08:57:34;49.22;;;34.83;;
39600;SDS011;25297;44.758;11.310;2024-02-15T09:00:01;44.88;;;32.60;;
39600;SDS011;25297;44.758;11.310;2024-02-15T09:02:30;48.85;;;34.15;;
39600;SDS011;25297;44.758;11.310;2024-02-15T09:04:57;45.65;;;34.25;;
39600;SDS011;25297;44.758;11.310;2024-02-15T09:07:24;43.25;;;34.00;;
39600;SDS011;25297;44.758;11.310;2024-02-15T09:09:49;45.33;;;35.90;;
39600;SDS011;25297;44.758;11.310;2024-02-15T09:12:15;47.75;;;34.17;;
39600;SDS011;25297;44.758;11.310;2024-02-15T09:14:41;43.75;;;30.20;;
39600;SDS011;25297;44.758;11.310;2024-02-15T09:17:06;34.30;;;26.23;;
39600;SDS011;25297;44.758;11.310;2024-02-15T09:19:35;36.92;;;27.25;;
39600;SDS011;25297;44.758;11.310;2024-02-15T09:22:01;35.90;;;24.73;;
39600;SDS011;25297;44.758;11.310;2024-02-15T09:24:31;36.65;;;26.92;;
39600;SDS011;25297;44.758;11.310;2024-02-15T09:26:58;34.50;;;23.92;;
39600;SDS011;25297;44.758;11.310;2024-02-15T09:29:28;36.67;;;25.67;;
39600;SDS011;25297;44.758;11.310;2024-02-15T09:31:59;36.88;;;27.20;;
39600;SDS011;25297;44.758;11.310;2024-02-15T09:34:28;34.42;;;25.38;;
39600;SDS011;25297;44.758;11.310;2024-02-15T09:36:53;33.08;;;24.75;;
39600;SDS011;25297;44.758;11.310;2024-02-15T09:39:21;33.67;;;24.27;;
39600;SDS011;25297;44.758;11.310;2024-02-15T09:41:48;35.78;;;25.75;;
39600;SDS011;25297;44.758;11.310;2024-02-15T09:44:20;37.33;;;27.00;;
39600;SDS011;25297;44.758;11.310;2024-02-15T09:46:46;39.65;;;27.15;;
39600;SDS011;25297;44.758;11.310;2024-02-15T09:49:19;34.50;;;27.27;;
39600;SDS011;25297;44.758;11.310;2024-02-15T09:51:45;40.28;;;27.00;;
39600;SDS011;25297;44.758;11.310;2024-02-15T09:54:13;41.33;;;26.20;;
39600;SDS011;25297;44.758;11.310;2024-02-15T09:56:47;38.10;;;27.75;;
39600;SDS011;25297;44.758;11.310;2024-02-15T09:59:14;36.58;;;27.67;;
39600;SDS011;25297;44.758;11.310;2024-02-15T10:01:41;40.10;;;28.45;;
39600;SDS011;25297;44.758;11.310;2024-02-15T10:04:07;39.50;;;28.05;;
39600;SDS011;25297;44.758;11.310;2024-02-15T10:06:33;37.53;;;28.45;;
39600;SDS011;25297;44.758;11.310;2024-02-15T10:11:54;42.45;;;29.27;;
39600;SDS011;25297;44.758;11.310;2024-02-15T10:14:24;40.42;;;30.75;;
39600;SDS011;25297;44.758;11.310;2024-02-15T10:16:56;41.90;;;29.70;;
39600;SDS011;25297;44.758;11.310;2024-02-15T10:19:22;46.33;;;30.42;;
39600;SDS011;25297;44.758;11.310;2024-02-15T10:21:52;43.63;;;31.65;;
39600;SDS011;25297;44.758;11.310;2024-02-15T10:27:03;40.33;;;30.02;;
39600;SDS011;25297;44.758;11.310;2024-02-15T10:29:29;46.40;;;30.35;;
39600;SDS011;25297;44.758;11.310;2024-02-15T10:31:59;45.08;;;32.00;;
39600;SDS011;25297;44.758;11.310;2024-02-15T10:34:27;42.25;;;30.98;;
39600;SDS011;25297;44.758;11.310;2024-02-15T10:36:53;40.55;;;32.28;;
39600;SDS011;25297;44.758;11.310;2024-02-15T10:39:21;46.78;;;35.45;;
39600;SDS011;25297;44.758;11.310;2024-02-15T10:41:52;40.17;;;30.42;;
39600;SDS011;25297;44.758;11.310;2024-02-15T10:44:23;47.78;;;34.92;;
39600;SDS011;25297;44.758;11.310;2024-02-15T10:46:50;44.55;;;32.33;;
39600;SDS011;25297;44.758;11.310;2024-02-15T10:49:23;47.95;;;35.92;;
39600;SDS011;25297;44.758;11.310;2024-02-15T10:51:51;48.55;;;35.15;;
39600;SDS011;25297;44.758;11.310;2024-02-15T10:59:44;58.75;;;41.10;;
39600;SDS011;25297;44.758;11.310;2024-02-15T11:02:28;54.35;;;41.80;;
39600;SDS011;25297;44.758;11.310;2024-02-15T11:04:55;64.35;;;46.92;;
39600;SDS011;25297;44.758;11.310;2024-02-15T11:07:28;55.88;;;41.90;;
39600;SDS011;25297;44.758;11.310;2024-02-15T11:09:56;56.72;;;42.28;;
39600;SDS011;25297;44.758;11.310;2024-02-15T11:12:23;61.58;;;48.35;;
39600;SDS011;25297;44.758;11.310;2024-02-15T11:14:51;56.10;;;40.42;;
39600;SDS011;25297;44.758;11.310;2024-02-15T11:20:04;51.30;;;40.80;;
39600;SDS011;25297;44.758;11.310;2024-02-15T11:22:34;50.53;;;40.13;;
39600;SDS011;25297;44.758;11.310;2024-02-15T11:25:04;56.17;;;41.13;;
39600;SDS011;25297;44.758;11.310;2024-02-15T11:27:37;54.60;;;41.78;;
39600;SDS011;25297;44.758;11.310;2024-02-15T11:30:05;55.00;;;42.03;;
39600;SDS011;25297;44.758;11.310;2024-02-15T11:35:11;55.90;;;40.70;;
39600;SDS011;25297;44.758;11.310;2024-02-15T11:40:16;54.35;;;40.10;;
39600;SDS011;25297;44.758;11.310;2024-02-15T11:43:44;67.78;;;44.35;;
39600;SDS011;25297;44.758;11.310;2024-02-15T11:46:12;58.67;;;41.75;;
39600;SDS011;25297;44.758;11.310;2024-02-15T11:48:45;59.15;;;43.25;;
39600;SDS011;25297;44.758;11.310;2024-02-15T11:54:02;54.33;;;40.30;;
39600;SDS011;25297;44.758;11.310;2024-02-15T11:59:42;59.83;;;43.22;;
39600;SDS011;25297;44.758;11.310;2024-02-15T12:02:27;60.55;;;44.85;;
39600;SDS011;25297;44.758;11.310;2024-02-15T12:05:11;60.53;;;43.88;;
39600;SDS011;25297;44.758;11.310;2024-02-15T12:07:58;60.33;;;42.63;;
39600;SDS011;25297;44.758;11.310;2024-02-15T12:10:42;60.22;;;42.97;;
39600;SDS011;25297;44.758;11.310;2024-02-15T12:13:26;55.90;;;41.95;;
39600;SDS011;25297;44.758;11.310;2024-02-15T12:16:15;61.47;;;46.53;;
39600;SDS011;25297;44.758;11.310;2024-02-15T12:18:59;59.03;;;41.83;;
39600;SDS011;25297;44.758;11.310;2024-02-15T12:21:25;61.25;;;43.60;;
39600;SDS011;25297;44.758;11.310;2024-02-15T12:23:52;64.03;;;47.45;;
39600;SDS011;25297;44.758;11.310;2024-02-15T12:26:19;58.72;;;42.40;;
39600;SDS011;25297;44.758;11.310;2024-02-15T12:28:49;62.08;;;42.40;;
39600;SDS011;25297;44.758;11.310;2024-02-15T12:31:16;59.60;;;42.60;;
39600;SDS011;25297;44.758;11.310;2024-02-15T12:33:42;67.75;;;46.88;;
39600;SDS011;25297;44.758;11.310;2024-02-15T12:36:09;60.63;;;45.45;;
39600;SDS011;25297;44.758;11.310;2024-02-15T12:38:35;64.45;;;46.67;;
39600;SDS011;25297;44.758;11.310;2024-02-15T12:41:04;60.08;;;43.90;;
39600;SDS011;25297;44.758;11.310;2024-02-15T12:43:45;59.90;;;44.50;;
39600;SDS011;25297;44.758;11.310;2024-02-15T12:46:11;60.22;;;46.40;;
39600;SDS011;25297;44.758;11.310;2024-02-15T12:48:37;63.45;;;45.70;;
39600;SDS011;25297;44.758;11.310;2024-02-15T12:51:15;60.47;;;45.65;;
39600;SDS011;25297;44.758;11.310;2024-02-15T12:53:41;60.35;;;43.63;;
39600;SDS011;25297;44.758;11.310;2024-02-15T12:56:07;61.25;;;46.70;;
39600;SDS011;25297;44.758;11.310;2024-02-15T12:58:34;57.90;;;42.53;;
39600;SDS011;25297;44.758;11.310;2024-02-15T13:01:00;59.28;;;44.25;;
39600;SDS011;25297;44.758;11.310;2024-02-15T13:03:26;57.80;;;43.67;;
39600;SDS011;25297;44.758;11.310;2024-02-15T13:05:52;57.42;;;45.03;;
39600;SDS011;25297;44.758;11.310;2024-02-15T13:08:18;59.80;;;45.83;;
39600;SDS011;25297;44.758;11.310;2024-02-15T13:10:45;57.70;;;44.53;;
39600;SDS011;25297;44.758;11.310;2024-02-15T13:13:11;58.55;;;44.33;;
39600;SDS011;25297;44.758;11.310;2024-02-15T13:15:39;58.72;;;47.63;;
39600;SDS011;25297;44.758;11.310;2024-02-15T13:18:05;53.50;;;43.83;;
39600;SDS011;25297;44.758;11.310;2024-02-15T13:20:34;58.00;;;46.33;;
39600;SDS011;25297;44.758;11.310;2024-02-15T13:23:03;61.03;;;48.50;;
39600;SDS011;25297;44.758;11.310;2024-02-15T13:25:55;56.72;;;46.35;;
39600;SDS011;25297;44.758;11.310;2024-02-15T13:28:22;67.30;;;43.08;;
39600;SDS011;25297;44.758;11.310;2024-02-15T13:30:49;56.67;;;43.78;;
39600;SDS011;25297;44.758;11.310;2024-02-15T13:33:18;51.10;;;42.15;;
39600;SDS011;25297;44.758;11.310;2024-02-15T13:35:45;69.22;;;56.25;;
39600;SDS011;25297;44.758;11.310;2024-02-15T13:38:11;62.78;;;52.88;;
39600;SDS011;25297;44.758;11.310;2024-02-15T13:40:47;62.17;;;47.55;;
39600;SDS011;25297;44.758;11.310;2024-02-15T13:43:17;56.90;;;46.53;;
39600;SDS011;25297;44.758;11.310;2024-02-15T13:45:43;59.08;;;50.03;;
39600;SDS011;25297;44.758;11.310;2024-02-15T13:48:10;62.65;;;50.58;;
39600;SDS011;25297;44.758;11.310;2024-02-15T13:50:39;105.40;;;51.85;;
39600;SDS011;25297;44.758;11.310;2024-02-15T13:53:05;61.70;;;49.75;;
39600;SDS011;25297;44.758;11.310;2024-02-15T13:55:31;58.45;;;47.08;;
39600;SDS011;25297;44.758;11.310;2024-02-15T13:57:57;61.03;;;48.53;;
39600;SDS011;25297;44.758;11.310;2024-02-15T14:00:25;60.80;;;47.92;;
39600;SDS011;25297;44.758;11.310;2024-02-15T14:03:01;65.00;;;52.42;;
39600;SDS011;25297;44.758;11.310;2024-02-15T14:05:31;62.60;;;49.72;;
39600;SDS011;25297;44.758;11.310;2024-02-15T14:10:27;65.38;;;53.85;;
39600;SDS011;25297;44.758;11.310;2024-02-15T14:12:54;64.50;;;49.95;;
39600;SDS011;25297;44.758;11.310;2024-02-15T14:15:21;61.53;;;50.30;;
39600;SDS011;25297;44.758;11.310;2024-02-15T14:17:47;67.03;;;50.58;;
39600;SDS011;25297;44.758;11.310;2024-02-15T14:20:13;68.57;;;55.50;;
39600;SDS011;25297;44.758;11.310;2024-02-15T14:25:11;65.53;;;50.20;;
39600;SDS011;25297;44.758;11.310;2024-02-15T14:27:39;61.70;;;50.15;;
39600;SDS011;25297;44.758;11.310;2024-02-15T14:30:05;64.55;;;49.95;;
39600;SDS011;25297;44.758;11.310;2024-02-15T14:32:50;68.07;;;52.03;;
39600;SDS011;25297;44.758;11.310;2024-02-15T14:35:26;70.03;;;54.50;;
39600;SDS011;25297;44.758;11.310;2024-02-15T14:37:55;65.50;;;51.15;;
39600;SDS011;25297;44.758;11.310;2024-02-15T14:40:27;64.30;;;50.85;;
39600;SDS011;25297;44.758;11.310;2024-02-15T14:42:53;69.13;;;53.13;;
39600;SDS011;25297;44.758;11.310;2024-02-15T14:45:19;68.05;;;51.78;;
39600;SDS011;25297;44.758;11.310;2024-02-15T14:47:45;67.53;;;51.72;;
39600;SDS011;25297;44.758;11.310;2024-02-15T14:50:12;64.22;;;49.45;;